sensor_id;sensor_type;location;lat;lon;timestamp;pressure;altitude;pressure_sealevel;temperature;humidity
24280;BME280;12395;42.808;23.408;2022-09-16T00:00:29;94392.81;;;19.97;62.23
24280;BME280;12395;42.808;23.408;2022-09-16T00:02:55;94390.34;;;20.06;62.20
24280;BME280;12395;42.808;23.408;2022-09-16T00:05:21;94405.69;;;20.05;63.25
24280;BME280;12395;42.808;23.408;2022-09-16T00:07:47;94382.94;;;19.82;63.85
24280;BME280;12395;42.808;23.408;2022-09-16T00:10:13;94394.78;;;19.76;64.17
24280;BME280;12395;42.808;23.408;2022-09-16T00:12:39;94390.31;;;19.57;64.81
24280;BME280;12395;42.808;23.408;2022-09-16T00:15:06;94408.81;;;19.63;65.06
24280;BME280;12395;42.808;23.408;2022-09-16T00:17:32;94399.75;;;19.54;65.24
24280;BME280;12395;42.808;23.408;2022-09-16T00:19:59;94390.59;;;19.55;64.89
24280;BME280;12395;42.808;23.408;2022-09-16T00:22:26;94408.88;;;19.58;64.65
24280;BME280;12395;42.808;23.408;2022-09-16T00:24:53;94395.28;;;19.88;62.26
24280;BME280;12395;42.808;23.408;2022-09-16T00:27:18;94401.59;;;20.13;62.33
24280;BME280;12395;42.808;23.408;2022-09-16T00:29:44;94399.94;;;20.17;61.79
24280;BME280;12395;42.808;23.408;2022-09-16T00:32:09;94388.88;;;20.28;60.43
24280;BME280;12395;42.808;23.408;2022-09-16T00:34:34;94404.72;;;20.35;61.25
24280;BME280;12395;42.808;23.408;2022-09-16T00:37:00;94395.94;;;20.14;62.44
24280;BME280;12395;42.808;23.408;2022-09-16T00:39:27;94385.53;;;19.97;62.35
24280;BME280;12395;42.808;23.408;2022-09-16T00:41:53;94379.59;;;20.06;62.13
24280;BME280;12395;42.808;23.408;2022-09-16T00:44:51;94387.59;;;20.21;62.14
24280;BME280;12395;42.808;23.408;2022-09-16T00:50:22;94396.13;;;19.84;63.56
24280;BME280;12395;42.808;23.408;2022-09-16T00:52:52;94398.81;;;19.84;63.62
24280;BME280;12395;42.808;23.408;2022-09-16T00:55:23;94405.00;;;19.84;63.48
24280;BME280;12395;42.808;23.408;2022-09-16T00:57:51;94396.41;;;19.77;62.81
24280;BME280;12395;42.808;23.408;2022-09-16T01:00:17;94408.06;;;20.07;61.88
24280;BME280;12395;42.808;23.408;2022-09-16T01:02:43;94393.75;;;20.26;60.14
24280;BME280;12395;42.808;23.408;2022-09-16T01:05:14;94415.41;;;20.45;60.13
24280;BME280;12395;42.808;23.408;2022-09-16T01:07:45;94418.66;;;20.75;58.74
24280;BME280;12395;42.808;23.408;2022-09-16T01:10:17;94424.28;;;20.79;59.02
24280;BME280;12395;42.808;23.408;2022-09-16T01:12:45;94415.97;;;20.75;58.93
24280;BME280;12395;42.808;23.408;2022-09-16T01:15:13;94405.91;;;20.86;58.04
24280;BME280;12395;42.808;23.408;2022-09-16T01:21:01;94415.31;;;20.89;58.69
24280;BME280;12395;42.808;23.408;2022-09-16T01:26:46;94426.97;;;20.79;58.33
24280;BME280;12395;42.808;23.408;2022-09-16T01:34:28;94423.88;;;20.62;59.92
24280;BME280;12395;42.808;23.408;2022-09-16T01:37:22;94412.50;;;20.70;58.05
24280;BME280;12395;42.808;23.408;2022-09-16T01:40:25;94417.56;;;20.76;60.21
24280;BME280;12395;42.808;23.408;2022-09-16T01:43:12;94419.53;;;20.66;59.62
24280;BME280;12395;42.808;23.408;2022-09-16T01:45:55;94414.28;;;20.51;60.89
24280;BME280;12395;42.808;23.408;2022-09-16T01:51:18;94413.41;;;20.22;62.11
24280;BME280;12395;42.808;23.408;2022-09-16T01:54:12;94411.81;;;20.21;62.37
24280;BME280;12395;42.808;23.408;2022-09-16T01:57:03;94426.06;;;20.16;63.10
24280;BME280;12395;42.808;23.408;2022-09-16T01:59:39;94423.22;;;19.92;63.95
24280;BME280;12395;42.808;23.408;2022-09-16T02:05:04;94414.03;;;19.98;62.97
24280;BME280;12395;42.808;23.408;2022-09-16T02:07:34;94407.34;;;19.91;64.09
24280;BME280;12395;42.808;23.408;2022-09-16T02:10:33;94381.91;;;19.73;64.23
24280;BME280;12395;42.808;23.408;2022-09-16T02:13:04;94397.78;;;19.70;64.96
24280;BME280;12395;42.808;23.408;2022-09-16T02:15:33;94378.53;;;19.48;65.02
24280;BME280;12395;42.808;23.408;2022-09-16T02:18:10;94382.56;;;19.45;65.33
24280;BME280;12395;42.808;23.408;2022-09-16T02:20:40;94386.03;;;19.51;65.43
24280;BME280;12395;42.808;23.408;2022-09-16T02:23:15;94378.53;;;19.48;65.61
24280;BME280;12395;42.808;23.408;2022-09-16T02:25:44;94389.53;;;19.46;65.72
24280;BME280;12395;42.808;23.408;2022-09-16T02:28:15;94390.38;;;19.42;65.49
24280;BME280;12395;42.808;23.408;2022-09-16T02:30:46;94374.00;;;19.28;66.24
24280;BME280;12395;42.808;23.408;2022-09-16T02:33:15;94391.97;;;19.43;65.70
24280;BME280;12395;42.808;23.408;2022-09-16T02:35:42;94391.22;;;19.37;66.13
24280;BME280;12395;42.808;23.408;2022-09-16T02:38:13;94389.03;;;19.29;65.98
24280;BME280;12395;42.808;23.408;2022-09-16T02:40:45;94386.38;;;19.19;66.44
24280;BME280;12395;42.808;23.408;2022-09-16T02:43:12;94390.16;;;19.13;66.41
24280;BME280;12395;42.808;23.408;2022-09-16T02:48:38;94406.28;;;19.08;66.96
24280;BME280;12395;42.808;23.408;2022-09-16T02:54:03;94390.72;;;19.05;66.13
24280;BME280;12395;42.808;23.408;2022-09-16T02:56:35;94373.56;;;19.01;65.69
24280;BME280;12395;42.808;23.408;2022-09-16T02:59:04;94383.72;;;19.04;65.59
24280;BME280;12395;42.808;23.408;2022-09-16T03:01:33;94400.91;;;19.18;65.09
24280;BME280;12395;42.808;23.408;2022-09-16T03:04:02;94401.19;;;19.06;66.03
24280;BME280;12395;42.808;23.408;2022-09-16T03:06:28;94410.06;;;19.02;66.26
24280;BME280;12395;42.808;23.408;2022-09-16T03:08:58;94406.81;;;18.95;66.06
24280;BME280;12395;42.808;23.408;2022-09-16T03:22:12;94431.75;;;19.41;64.85
24280;BME280;12395;42.808;23.408;2022-09-16T03:25:05;94438.22;;;19.35;65.61
24280;BME280;12395;42.808;23.408;2022-09-16T03:30:24;94444.13;;;19.42;65.75
24280;BME280;12395;42.808;23.408;2022-09-16T03:35:35;94397.66;;;19.36;68.96
24280;BME280;12395;42.808;23.408;2022-09-16T03:38:02;94402.47;;;19.29;70.55
24280;BME280;12395;42.808;23.408;2022-09-16T03:40:30;94433.91;;;19.23;71.30
24280;BME280;12395;42.808;23.408;2022-09-16T03:42:57;94446.53;;;19.28;70.82
24280;BME280;12395;42.808;23.408;2022-09-16T03:45:23;94441.97;;;19.29;70.67
24280;BME280;12395;42.808;23.408;2022-09-16T03:47:50;94411.13;;;19.11;70.49
24280;BME280;12395;42.808;23.408;2022-09-16T03:50:17;94422.66;;;19.06;70.68
24280;BME280;12395;42.808;23.408;2022-09-16T03:52:43;94422.13;;;19.04;70.78
24280;BME280;12395;42.808;23.408;2022-09-16T03:55:09;94426.44;;;18.95;69.36
24280;BME280;12395;42.808;23.408;2022-09-16T03:57:37;94426.16;;;19.02;70.16
24280;BME280;12395;42.808;23.408;2022-09-16T04:00:05;94418.66;;;18.99;70.88
24280;BME280;12395;42.808;23.408;2022-09-16T04:02:31;94420.25;;;19.00;67.07
24280;BME280;12395;42.808;23.408;2022-09-16T04:04:56;94402.25;;;19.05;66.82
24280;BME280;12395;42.808;23.408;2022-09-16T04:07:22;94393.41;;;19.00;67.55
24280;BME280;12395;42.808;23.408;2022-09-16T04:09:47;94400.13;;;18.97;69.92
24280;BME280;12395;42.808;23.408;2022-09-16T04:12:13;94407.66;;;19.00;71.49
24280;BME280;12395;42.808;23.408;2022-09-16T04:14:38;94397.75;;;18.86;72.96
24280;BME280;12395;42.808;23.408;2022-09-16T04:17:04;94419.19;;;18.91;74.17
24280;BME280;12395;42.808;23.408;2022-09-16T04:19:29;94384.88;;;18.73;74.54
24280;BME280;12395;42.808;23.408;2022-09-16T04:21:55;94413.31;;;18.79;75.65
24280;BME280;12395;42.808;23.408;2022-09-16T04:24:20;94417.59;;;18.85;76.10
24280;BME280;12395;42.808;23.408;2022-09-16T04:26:46;94391.06;;;18.58;74.19
24280;BME280;12395;42.808;23.408;2022-09-16T04:29:11;94410.34;;;18.65;77.36
24280;BME280;12395;42.808;23.408;2022-09-16T04:31:37;94444.44;;;18.70;74.46
24280;BME280;12395;42.808;23.408;2022-09-16T04:34:03;94419.22;;;18.71;71.49
24280;BME280;12395;42.808;23.408;2022-09-16T04:36:28;94427.25;;;18.91;69.47
24280;BME280;12395;42.808;23.408;2022-09-16T04:38:54;94455.16;;;19.05;73.39
24280;BME280;12395;42.808;23.408;2022-09-16T04:41:21;94455.16;;;19.00;75.17
24280;BME280;12395;42.808;23.408;2022-09-16T04:43:58;94454.63;;;18.93;74.24
24280;BME280;12395;42.808;23.408;2022-09-16T04:46:25;94457.31;;;18.93;71.71
24280;BME280;12395;42.808;23.408;2022-09-16T04:48:52;94448.44;;;18.97;74.33
24280;BME280;12395;42.808;23.408;2022-09-16T04:51:19;94470.72;;;19.18;75.22
24280;BME280;12395;42.808;23.408;2022-09-16T04:53:45;94463.19;;;19.30;75.75
24280;BME280;12395;42.808;23.408;2022-09-16T04:56:19;94462.38;;;19.45;71.57
24280;BME280;12395;42.808;23.408;2022-09-16T04:58:50;94470.66;;;19.58;71.53
24280;BME280;12395;42.808;23.408;2022-09-16T05:01:18;94458.56;;;19.61;73.95
24280;BME280;12395;42.808;23.408;2022-09-16T05:03:46;94452.09;;;19.62;71.26
24280;BME280;12395;42.808;23.408;2022-09-16T05:06:14;94437.84;;;19.66;73.40
24280;BME280;12395;42.808;23.408;2022-09-16T05:08:40;94443.22;;;19.71;73.35
24280;BME280;12395;42.808;23.408;2022-09-16T05:11:10;94452.00;;;19.87;74.23
24280;BME280;12395;42.808;23.408;2022-09-16T05:13:37;94436.41;;;19.89;75.83
24280;BME280;12395;42.808;23.408;2022-09-16T05:16:04;94452.16;;;20.11;74.02
24280;BME280;12395;42.808;23.408;2022-09-16T05:18:30;94430.66;;;20.11;74.01
24280;BME280;12395;42.808;23.408;2022-09-16T05:20:57;94442.38;;;20.35;73.88
24280;BME280;12395;42.808;23.408;2022-09-16T05:23:22;94453.56;;;20.52;74.54
24280;BME280;12395;42.808;23.408;2022-09-16T05:25:48;94433.66;;;20.53;74.47
24280;BME280;12395;42.808;23.408;2022-09-16T05:28:13;94436.47;;;20.71;75.17
24280;BME280;12395;42.808;23.408;2022-09-16T05:30:38;94433.50;;;20.73;74.69
24280;BME280;12395;42.808;23.408;2022-09-16T05:33:04;94436.09;;;20.83;72.44
24280;BME280;12395;42.808;23.408;2022-09-16T05:35:29;94408.63;;;20.86;71.14
24280;BME280;12395;42.808;23.408;2022-09-16T05:37:55;94431.69;;;20.97;71.89
24280;BME280;12395;42.808;23.408;2022-09-16T05:40:20;94436.50;;;21.00;72.68
24280;BME280;12395;42.808;23.408;2022-09-16T05:42:50;94432.94;;;21.10;70.88
24280;BME280;12395;42.808;23.408;2022-09-16T05:45:15;94440.63;;;21.21;70.15
24280;BME280;12395;42.808;23.408;2022-09-16T05:47:46;94433.75;;;21.10;74.98
24280;BME280;12395;42.808;23.408;2022-09-16T05:50:12;94418.03;;;21.17;70.57
24280;BME280;12395;42.808;23.408;2022-09-16T05:52:37;94422.44;;;21.37;69.37
24280;BME280;12395;42.808;23.408;2022-09-16T05:55:03;94434.53;;;21.39;70.48
24280;BME280;12395;42.808;23.408;2022-09-16T05:57:28;94424.38;;;21.31;69.35
24280;BME280;12395;42.808;23.408;2022-09-16T05:59:54;94389.72;;;21.20;69.01
24280;BME280;12395;42.808;23.408;2022-09-16T06:02:19;94428.97;;;21.55;64.70
24280;BME280;12395;42.808;23.408;2022-09-16T06:04:45;94424.63;;;21.59;65.82
24280;BME280;12395;42.808;23.408;2022-09-16T06:07:11;94429.38;;;21.67;65.64
24280;BME280;12395;42.808;23.408;2022-09-16T06:09:37;94432.59;;;21.69;64.74
24280;BME280;12395;42.808;23.408;2022-09-16T06:12:02;94426.16;;;21.65;62.25
24280;BME280;12395;42.808;23.408;2022-09-16T06:14:28;94425.97;;;21.85;60.52
24280;BME280;12395;42.808;23.408;2022-09-16T06:16:54;94428.47;;;22.00;64.65
24280;BME280;12395;42.808;23.408;2022-09-16T06:19:20;94421.97;;;22.01;68.05
24280;BME280;12395;42.808;23.408;2022-09-16T06:21:46;94438.25;;;22.14;69.04
24280;BME280;12395;42.808;23.408;2022-09-16T06:24:13;94434.69;;;22.19;69.75
24280;BME280;12395;42.808;23.408;2022-09-16T06:26:40;94430.63;;;22.21;70.63
24280;BME280;12395;42.808;23.408;2022-09-16T06:29:07;94431.69;;;22.20;70.79
24280;BME280;12395;42.808;23.408;2022-09-16T06:31:34;94409.44;;;22.10;70.18
24280;BME280;12395;42.808;23.408;2022-09-16T06:34:00;94417.69;;;22.18;70.12
24280;BME280;12395;42.808;23.408;2022-09-16T06:36:28;94424.84;;;22.28;70.30
24280;BME280;12395;42.808;23.408;2022-09-16T06:38:54;94416.97;;;22.32;69.72
24280;BME280;12395;42.808;23.408;2022-09-16T06:41:20;94423.03;;;22.42;69.98
24280;BME280;12395;42.808;23.408;2022-09-16T06:43:47;94431.56;;;22.49;68.33
24280;BME280;12395;42.808;23.408;2022-09-16T06:46:15;94431.19;;;22.56;68.09
24280;BME280;12395;42.808;23.408;2022-09-16T06:48:46;94427.19;;;22.53;66.61
24280;BME280;12395;42.808;23.408;2022-09-16T06:51:16;94438.38;;;22.65;66.49
24280;BME280;12395;42.808;23.408;2022-09-16T06:53:43;94435.16;;;22.63;64.40
24280;BME280;12395;42.808;23.408;2022-09-16T06:56:10;94439.31;;;22.74;63.89
24280;BME280;12395;42.808;23.408;2022-09-16T06:58:38;94445.66;;;22.83;62.89
24280;BME280;12395;42.808;23.408;2022-09-16T07:01:11;94443.66;;;22.89;62.71
24280;BME280;12395;42.808;23.408;2022-09-16T07:03:38;94444.97;;;22.91;62.83
24280;BME280;12395;42.808;23.408;2022-09-16T07:06:03;94441.09;;;22.97;62.02
24280;BME280;12395;42.808;23.408;2022-09-16T07:08:34;94435.94;;;23.15;61.33
24280;BME280;12395;42.808;23.408;2022-09-16T07:11:05;94445.31;;;23.36;62.80
24280;BME280;12395;42.808;23.408;2022-09-16T07:13:32;94433.31;;;23.42;62.53
24280;BME280;12395;42.808;23.408;2022-09-16T07:16:02;94435.66;;;23.62;60.40
24280;BME280;12395;42.808;23.408;2022-09-16T07:18:29;94449.47;;;23.74;59.67
24280;BME280;12395;42.808;23.408;2022-09-16T07:21:21;94441.28;;;23.79;59.37
24280;BME280;12395;42.808;23.408;2022-09-16T07:23:48;94437.25;;;23.76;58.82
24280;BME280;12395;42.808;23.408;2022-09-16T07:26:23;94444.78;;;23.93;59.10
24280;BME280;12395;42.808;23.408;2022-09-16T07:28:51;94427.84;;;24.01;57.92
24280;BME280;12395;42.808;23.408;2022-09-16T07:31:29;94427.75;;;24.06;57.43
24280;BME280;12395;42.808;23.408;2022-09-16T07:33:56;94433.56;;;24.13;58.44
24280;BME280;12395;42.808;23.408;2022-09-16T07:36:24;94434.88;;;24.16;58.85
24280;BME280;12395;42.808;23.408;2022-09-16T07:38:50;94419.03;;;24.09;59.21
24280;BME280;12395;42.808;23.408;2022-09-16T07:41:18;94433.34;;;24.23;59.31
24280;BME280;12395;42.808;23.408;2022-09-16T07:43:45;94430.53;;;24.28;57.89
24280;BME280;12395;42.808;23.408;2022-09-16T07:46:12;94411.19;;;24.21;56.91
24280;BME280;12395;42.808;23.408;2022-09-16T07:48:38;94418.00;;;24.32;55.21
24280;BME280;12395;42.808;23.408;2022-09-16T07:51:13;94411.25;;;24.43;53.53
24280;BME280;12395;42.808;23.408;2022-09-16T07:53:39;94411.50;;;24.56;51.21
24280;BME280;12395;42.808;23.408;2022-09-16T07:56:17;94422.31;;;24.69;49.86
24280;BME280;12395;42.808;23.408;2022-09-16T07:58:44;94423.38;;;24.82;50.53
24280;BME280;12395;42.808;23.408;2022-09-16T08:01:11;94404.25;;;24.78;47.25
24280;BME280;12395;42.808;23.408;2022-09-16T08:03:38;94419.81;;;24.95;48.67
24280;BME280;12395;42.808;23.408;2022-09-16T08:06:11;94408.97;;;25.17;48.82
24280;BME280;12395;42.808;23.408;2022-09-16T08:08:39;94399.56;;;25.45;46.52
24280;BME280;12395;42.808;23.408;2022-09-16T08:11:05;94377.97;;;25.71;45.87
24280;BME280;12395;42.808;23.408;2022-09-16T08:13:32;94393.91;;;26.12;43.98
24280;BME280;12395;42.808;23.408;2022-09-16T08:16:00;94388.22;;;26.39;43.44
24280;BME280;12395;42.808;23.408;2022-09-16T08:18:25;94395.63;;;26.72;40.99
24280;BME280;12395;42.808;23.408;2022-09-16T08:20:51;94393.84;;;26.94;41.62
24280;BME280;12395;42.808;23.408;2022-09-16T08:23:17;94391.25;;;27.14;41.50
24280;BME280;12395;42.808;23.408;2022-09-16T08:25:43;94397.31;;;27.28;40.73
24280;BME280;12395;42.808;23.408;2022-09-16T08:28:13;94411.16;;;27.61;41.47
24280;BME280;12395;42.808;23.408;2022-09-16T08:30:39;94406.69;;;27.57;40.71
24280;BME280;12395;42.808;23.408;2022-09-16T08:33:04;94402.78;;;27.75;41.11
24280;BME280;12395;42.808;23.408;2022-09-16T08:35:30;94385.69;;;27.66;42.52
24280;BME280;12395;42.808;23.408;2022-09-16T08:37:55;94371.06;;;27.41;41.34
24280;BME280;12395;42.808;23.408;2022-09-16T08:40:23;94393.03;;;27.65;40.78
24280;BME280;12395;42.808;23.408;2022-09-16T08:42:53;94390.59;;;27.81;40.43
24280;BME280;12395;42.808;23.408;2022-09-16T08:45:32;94387.25;;;27.75;39.66
24280;BME280;12395;42.808;23.408;2022-09-16T08:48:26;94391.28;;;28.07;40.87
24280;BME280;12395;42.808;23.408;2022-09-16T08:50:56;94385.16;;;28.18;39.80
24280;BME280;12395;42.808;23.408;2022-09-16T08:53:41;94384.59;;;28.25;38.95
24280;BME280;12395;42.808;23.408;2022-09-16T08:56:14;94376.63;;;28.20;39.57
24280;BME280;12395;42.808;23.408;2022-09-16T08:58:49;94367.59;;;28.28;39.30
24280;BME280;12395;42.808;23.408;2022-09-16T09:01:35;94383.66;;;28.50;40.06
24280;BME280;12395;42.808;23.408;2022-09-16T09:04:03;94377.06;;;28.51;42.85
24280;BME280;12395;42.808;23.408;2022-09-16T09:20:32;94389.00;;;28.67;41.66
24280;BME280;12395;42.808;23.408;2022-09-16T09:26:25;94386.28;;;28.67;40.69
24280;BME280;12395;42.808;23.408;2022-09-16T09:29:33;94390.97;;;28.38;40.13
24280;BME280;12395;42.808;23.408;2022-09-16T09:40:08;94373.75;;;28.66;40.58
24280;BME280;12395;42.808;23.408;2022-09-16T09:48:24;94386.50;;;29.16;39.18
24280;BME280;12395;42.808;23.408;2022-09-16T09:50:52;94385.16;;;29.22;41.38
24280;BME280;12395;42.808;23.408;2022-09-16T09:53:23;94398.84;;;29.13;38.69
24280;BME280;12395;42.808;23.408;2022-09-16T09:56:20;94393.41;;;28.80;41.21
24280;BME280;12395;42.808;23.408;2022-09-16T10:01:25;94395.25;;;28.39;42.28
24280;BME280;12395;42.808;23.408;2022-09-16T10:03:51;94404.31;;;28.31;41.51
24280;BME280;12395;42.808;23.408;2022-09-16T10:06:24;94395.28;;;28.09;42.22
24280;BME280;12395;42.808;23.408;2022-09-16T10:08:53;94415.91;;;28.19;43.87
24280;BME280;12395;42.808;23.408;2022-09-16T10:11:22;94419.06;;;27.92;44.06
24280;BME280;12395;42.808;23.408;2022-09-16T10:13:56;94418.91;;;27.88;44.58
24280;BME280;12395;42.808;23.408;2022-09-16T10:16:26;94431.72;;;27.50;46.35
24280;BME280;12395;42.808;23.408;2022-09-16T10:19:14;94471.06;;;27.27;48.32
24280;BME280;12395;42.808;23.408;2022-09-16T10:21:45;94494.94;;;26.96;51.44
24280;BME280;12395;42.808;23.408;2022-09-16T10:24:33;94515.41;;;26.37;53.95
24280;BME280;12395;42.808;23.408;2022-09-16T10:27:00;94540.59;;;25.89;59.37
24280;BME280;12395;42.808;23.408;2022-09-16T10:29:27;94550.97;;;25.43;60.94
24280;BME280;12395;42.808;23.408;2022-09-16T10:31:53;94583.88;;;24.51;62.48
24280;BME280;12395;42.808;23.408;2022-09-16T10:34:30;94590.75;;;24.03;67.57
24280;BME280;12395;42.808;23.408;2022-09-16T10:39:25;94636.78;;;22.73;75.33
24280;BME280;12395;42.808;23.408;2022-09-16T10:41:51;94635.56;;;22.08;80.76
24280;BME280;12395;42.808;23.408;2022-09-16T10:46:51;94640.88;;;21.17;88.84
24280;BME280;12395;42.808;23.408;2022-09-16T10:49:23;94612.22;;;20.82;92.38
24280;BME280;12395;42.808;23.408;2022-09-16T10:51:50;94599.72;;;20.47;92.82
24280;BME280;12395;42.808;23.408;2022-09-16T10:54:24;94632.03;;;20.42;95.25
24280;BME280;12395;42.808;23.408;2022-09-16T10:56:52;94606.81;;;20.18;95.36
24280;BME280;12395;42.808;23.408;2022-09-16T10:59:18;94602.50;;;20.17;97.72
24280;BME280;12395;42.808;23.408;2022-09-16T11:02:12;94593.38;;;20.08;97.38
24280;BME280;12395;42.808;23.408;2022-09-16T11:50:29;94406.66;;;22.89;76.02
24280;BME280;12395;42.808;23.408;2022-09-16T11:58:44;94424.34;;;23.60;77.00
24280;BME280;12395;42.808;23.408;2022-09-16T12:01:29;94439.66;;;23.78;72.19
24280;BME280;12395;42.808;23.408;2022-09-16T12:06:35;94439.75;;;23.87;67.68
24280;BME280;12395;42.808;23.408;2022-09-16T12:09:11;94426.13;;;23.78;69.93
24280;BME280;12395;42.808;23.408;2022-09-16T12:11:45;94432.22;;;23.43;67.57
24280;BME280;12395;42.808;23.408;2022-09-16T12:14:22;94432.66;;;23.18;71.28
24280;BME280;12395;42.808;23.408;2022-09-16T12:16:53;94406.13;;;23.20;69.17
24280;BME280;12395;42.808;23.408;2022-09-16T12:22:21;94450.22;;;23.34;68.52
24280;BME280;12395;42.808;23.408;2022-09-16T12:25:01;94443.53;;;23.45;68.50
24280;BME280;12395;42.808;23.408;2022-09-16T12:27:50;94442.56;;;23.68;68.38
24280;BME280;12395;42.808;23.408;2022-09-16T12:30:22;94444.06;;;23.74;68.84
24280;BME280;12395;42.808;23.408;2022-09-16T12:35:46;94432.66;;;23.50;67.43
24280;BME280;12395;42.808;23.408;2022-09-16T12:38:17;94433.44;;;23.37;69.57
24280;BME280;12395;42.808;23.408;2022-09-16T12:53:54;94445.84;;;23.51;68.72
24280;BME280;12395;42.808;23.408;2022-09-16T13:01:51;94473.47;;;23.35;70.79
24280;BME280;12395;42.808;23.408;2022-09-16T13:04:27;94496.91;;;23.21;71.58
24280;BME280;12395;42.808;23.408;2022-09-16T13:06:55;94492.50;;;23.11;72.10
24280;BME280;12395;42.808;23.408;2022-09-16T13:09:35;94509.59;;;23.07;72.81
24280;BME280;12395;42.808;23.408;2022-09-16T13:14:37;94511.72;;;22.91;73.79
24280;BME280;12395;42.808;23.408;2022-09-16T13:17:08;94510.63;;;22.73;76.45
24280;BME280;12395;42.808;23.408;2022-09-16T13:19:57;94526.16;;;22.63;78.64
24280;BME280;12395;42.808;23.408;2022-09-16T13:22:45;94542.88;;;22.41;82.45
24280;BME280;12395;42.808;23.408;2022-09-16T13:25:27;94539.59;;;22.25;82.64
24280;BME280;12395;42.808;23.408;2022-09-16T13:30:34;94542.94;;;22.17;84.51
24280;BME280;12395;42.808;23.408;2022-09-16T13:35:44;94529.50;;;22.12;86.22
24280;BME280;12395;42.808;23.408;2022-09-16T13:40:40;94515.28;;;22.25;90.46
24280;BME280;12395;42.808;23.408;2022-09-16T13:43:36;94502.81;;;22.11;91.71
24280;BME280;12395;42.808;23.408;2022-09-16T13:46:34;94480.53;;;22.00;90.72
24280;BME280;12395;42.808;23.408;2022-09-16T13:51:31;94421.75;;;21.74;89.95
24280;BME280;12395;42.808;23.408;2022-09-16T13:53:58;94392.78;;;21.61;88.41
24280;BME280;12395;42.808;23.408;2022-09-16T13:56:56;94379.25;;;21.66;88.51
24280;BME280;12395;42.808;23.408;2022-09-16T14:02:18;94366.94;;;21.60;91.37
24280;BME280;12395;42.808;23.408;2022-09-16T14:07:50;94352.69;;;21.54;95.64
24280;BME280;12395;42.808;23.408;2022-09-16T14:13:23;94387.38;;;21.61;92.14
24280;BME280;12395;42.808;23.408;2022-09-16T14:15:53;94406.44;;;21.69;93.49
24280;BME280;12395;42.808;23.408;2022-09-16T14:18:23;94440.75;;;21.64;91.31
24280;BME280;12395;42.808;23.408;2022-09-16T14:20:54;94483.88;;;21.64;93.79
24280;BME280;12395;42.808;23.408;2022-09-16T14:23:23;94495.91;;;21.47;90.91
24280;BME280;12395;42.808;23.408;2022-09-16T14:25:48;94446.50;;;21.28;88.10
24280;BME280;12395;42.808;23.408;2022-09-16T14:28:22;94452.25;;;21.45;84.01
24280;BME280;12395;42.808;23.408;2022-09-16T14:30:59;94438.84;;;21.40;85.19
24280;BME280;12395;42.808;23.408;2022-09-16T14:33:32;94405.34;;;21.46;83.98
24280;BME280;12395;42.808;23.408;2022-09-16T14:35:59;94418.88;;;21.65;86.78
24280;BME280;12395;42.808;23.408;2022-09-16T14:38:35;94422.81;;;21.73;86.23
24280;BME280;12395;42.808;23.408;2022-09-16T14:41:06;94421.75;;;21.74;85.71
24280;BME280;12395;42.808;23.408;2022-09-16T14:43:36;94423.38;;;21.75;87.92
24280;BME280;12395;42.808;23.408;2022-09-16T14:46:02;94419.00;;;21.79;87.06
24280;BME280;12395;42.808;23.408;2022-09-16T14:48:33;94422.25;;;21.76;87.21
24280;BME280;12395;42.808;23.408;2022-09-16T14:51:01;94407.06;;;21.61;85.94
24280;BME280;12395;42.808;23.408;2022-09-16T14:53:27;94424.63;;;21.59;85.88
24280;BME280;12395;42.808;23.408;2022-09-16T14:55:54;94422.69;;;21.40;87.57
24280;BME280;12395;42.808;23.408;2022-09-16T14:58:21;94432.34;;;21.41;88.05
24280;BME280;12395;42.808;23.408;2022-09-16T15:00:51;94400.75;;;21.23;87.72
24280;BME280;12395;42.808;23.408;2022-09-16T15:03:28;94424.63;;;21.30;91.38
24280;BME280;12395;42.808;23.408;2022-09-16T15:05:57;94427.78;;;21.13;92.55
24280;BME280;12395;42.808;23.408;2022-09-16T15:08:42;94423.19;;;21.14;93.28
24280;BME280;12395;42.808;23.408;2022-09-16T15:11:12;94429.25;;;20.96;92.69
24280;BME280;12395;42.808;23.408;2022-09-16T15:13:39;94420.97;;;20.87;92.96
24280;BME280;12395;42.808;23.408;2022-09-16T15:18:33;94410.81;;;20.79;92.27
24280;BME280;12395;42.808;23.408;2022-09-16T15:23:35;94392.75;;;20.85;93.20
24280;BME280;12395;42.808;23.408;2022-09-16T15:26:23;94368.88;;;20.73;91.51
24280;BME280;12395;42.808;23.408;2022-09-16T15:31:30;94325.41;;;20.56;93.90
24280;BME280;12395;42.808;23.408;2022-09-16T15:33:58;94354.91;;;20.71;95.93
24280;BME280;12395;42.808;23.408;2022-09-16T15:36:39;94353.19;;;20.80;95.30
24280;BME280;12395;42.808;23.408;2022-09-16T15:39:22;94346.59;;;20.67;92.26
24280;BME280;12395;42.808;23.408;2022-09-16T15:41:49;94357.44;;;20.57;92.09
24280;BME280;12395;42.808;23.408;2022-09-16T15:44:22;94362.16;;;20.42;92.51
24280;BME280;12395;42.808;23.408;2022-09-16T15:46:50;94365.41;;;20.34;93.71
24280;BME280;12395;42.808;23.408;2022-09-16T15:49:16;94353.16;;;20.18;94.53
24280;BME280;12395;42.808;23.408;2022-09-16T15:51:48;94357.25;;;20.10;94.99
24280;BME280;12395;42.808;23.408;2022-09-16T15:54:29;94355.34;;;20.11;94.88
24280;BME280;12395;42.808;23.408;2022-09-16T15:57:02;94344.63;;;20.06;95.50
24280;BME280;12395;42.808;23.408;2022-09-16T15:59:39;94333.13;;;19.95;96.09
24280;BME280;12395;42.808;23.408;2022-09-16T16:02:21;94329.13;;;19.87;98.01
24280;BME280;12395;42.808;23.408;2022-09-16T16:04:50;94330.25;;;19.81;99.80
24280;BME280;12395;42.808;23.408;2022-09-16T16:07:47;94335.63;;;19.81;100.00
24280;BME280;12395;42.808;23.408;2022-09-16T16:10:19;94325.47;;;19.73;98.85
24280;BME280;12395;42.808;23.408;2022-09-16T16:12:49;94300.88;;;19.46;100.00
24280;BME280;12395;42.808;23.408;2022-09-16T16:15:17;94320.25;;;19.38;100.00
24280;BME280;12395;42.808;23.408;2022-09-16T16:17:44;94305.81;;;19.19;100.00